CYQU

Grande Prairie Airport

Grande Prairie, Alberta, Canada
TAF CYQU 170038Z 1701/1713 03008KT 4SM -SN SCT008 OVC015 TEMPO 1701/1713 2SM -SN BR OVC008 RMK NXT FCST BY 170700Z
Issued Valid From Valid To
Jan-17 @ 00:38 UTC
(4 hours ago)
Jan-17 @ 01:00 UTC
(4 hours ago)
Jan-17 @ 13:00 UTC
(in 8 hours)
Jan-17 @ 01:00 to Jan-17 @ 13:00
TAF CYQU 170038Z 1701/1713 03008KT 4SM -SN SCT008 OVC015
Wind Visibility Clouds Conditions
30° at 8 knots 4 miles
  • Scattered at 800' AGL
  • Overcast at 1,500' AGL
  • Light Snow
Temporary Jan-17 @ 01:00 to Jan-17 @ 13:00
TEMPO 1701/1713 2SM -SN BR OVC008 RMK NXT FCST BY 170700Z
Visibility Clouds Conditions
2 miles
  • Overcast at 800' AGL
  • Light Snow
  • Mist
TAF CYQU 170038Z 1701/1713 03008KT 4SM -SN SCT008 OVC015 TEMPO 1701/1713 2SM -SN BR OVC008 RMK NXT FCST BY 170700Z
Issued Jan-17 @ 00:38 UTC
(4 hours ago)
Valid From Jan-17 @ 01:00 UTC
(4 hours ago)
Valid To Jan-17 @ 13:00 UTC
(in 8 hours)
Jan-17 @ 01:00 - Jan-17 @ 13:00
Wind Visibility
30° at 8 knots 4 miles
Clouds
  • Scattered at 800' AGL
  • Overcast at 1,500' AGL
Conditions
  • Light Snow
Temporary Jan-17 @ 01:00 - Jan-17 @ 13:00
Clouds
  • Overcast at 800' AGL
Conditions
  • Light Snow
  • Mist